Syria, VA (22743)

5:47 AM EST on January 24, 2017 (GMT -0500)
Skyline Lakes | | Change Station
Active Advisory: Small Craft Advisory

Elev 2618 ft 38.51 °N, 78.47 °W | Updated 12 seconds ago

Overcast
Overcast
29.0 °F
Feels Like 29 °F
N
0.0
Wind Variable Wind from West
Gusts 0.0 mph

Today
High -- | Low -- °F
--% Chance of Precip.
Yesterday
High -- | Low -- °F
Precip. -- in
Pressure 29.53 in
Visibility 10.0 miles
Clouds Overcast 2400 ft
Windchill 29 °F
Dew Point 28 °F
Humidity 97%
Rainfall 0.00 in
Snow Depth Not available.
7:24 AM 5:26 PM
Waning Crescent, 12% visible
METAR KLUA 241035Z AUTO 00000KT 10SM OVC024 02/02 A2953 RMK AO2
Pressure 29.53 in
Visibility 10.0 miles
Clouds Overcast 2400 ft
Windchill 29 °F
Dew Point 28 °F
Humidity 97%
Rainfall 0.00 in
Snow Depth Not available.
7:24 AM 5:26 PM
Waning Crescent, 12% visible
METAR KLUA 241035Z AUTO 00000KT 10SM OVC024 02/02 A2953 RMK AO2

Get Your Daily Forecast Email!

Thanks for signing up!

Be on the lookout for a verification email in your inbox.

You'll start receiving the daily forecast at 8 AM.

×

10-Day Weather Forecast

Almanac

Astronomy

Jan. 24, 2017 Rise Set
Actual Time
Civil Twilight
Nautical Twilight
Astronomical Twilight
Moon
Length of Visible Light
Length of Day
Tomorrow will be .
, % of the Moon is Illuminated

Today's Extremes

State Highs State Lows

Community

WunderPhotos

Upload Photos

1,962,540 photos uploaded!

WunderBlog® & News

Nearby

Air Quality

  Air Quality AQ Index Pollutant
Not available.

Snow Depth

Station Depth Elevation

Earthquake Activity

City Distance Mag. Time & Date
Minimum magnitude displayed is 2.5.

Coastal Water Temperatures

Place Temperature

Stations

Nearby Weather Stations

Station Location Temp. Windchill Dew Point Humidity Wind Precip. Elev Updated Type
                   

Watches & Warnings

Small Craft Advisory
Issued: 12:29 AM EST Jan. 24, 2017 – National Weather Service

... Small Craft Advisory remains in effect until 10 PM EST this
evening...

* winds... 18 to 33 knots within the Small Craft Advisory.

Precautionary/preparedness actions...

A Small Craft Advisory means winds of 18 to 33 knots are imminent
or occurring. Boaters operating smaller vessels should avoid
navigating in these conditions.